createdAt,value
2023-03-26T00:02:23.583Z,37.10
2023-03-26T00:04:53.360Z,37.37
2023-03-26T00:07:21.313Z,37.18
2023-03-26T00:09:49.183Z,37.15
2023-03-26T00:12:17.236Z,37.25
2023-03-26T00:14:45.045Z,37.35
2023-03-26T00:17:12.955Z,37.22
2023-03-26T00:19:40.885Z,37.36
2023-03-26T00:22:11.200Z,37.59
2023-03-26T00:24:39.616Z,37.24
2023-03-26T00:27:08.860Z,37.25
2023-03-26T00:29:36.735Z,37.41
2023-03-26T00:32:06.457Z,37.33
2023-03-26T00:34:35.561Z,37.08
2023-03-26T00:37:03.601Z,37.33
2023-03-26T00:39:35.782Z,37.38
2023-03-26T00:42:07.498Z,36.96
2023-03-26T00:44:35.647Z,37.33
2023-03-26T00:47:03.700Z,37.26
2023-03-26T00:49:32.055Z,37.38
2023-03-26T00:51:59.940Z,37.30
2023-03-26T00:54:28.540Z,37.18
2023-03-26T00:56:56.413Z,37.38
2023-03-26T00:59:24.248Z,37.15
2023-03-26T01:01:55.267Z,37.24
2023-03-26T01:04:28.163Z,37.26
2023-03-26T01:06:56.924Z,37.15
2023-03-26T01:09:25.159Z,37.41
2023-03-26T01:11:53.086Z,37.24
2023-03-26T01:14:21.322Z,37.30
2023-03-26T01:16:50.079Z,37.36
2023-03-26T01:19:18.067Z,37.49
2023-03-26T01:21:47.349Z,37.38
2023-03-26T01:24:15.401Z,36.82
2023-03-26T01:26:43.413Z,37.41
2023-03-26T01:29:11.275Z,36.85
2023-03-26T01:31:39.730Z,37.26
2023-03-26T01:34:07.609Z,37.33
2023-03-26T01:36:35.546Z,37.48
2023-03-26T01:39:03.733Z,37.41
2023-03-26T01:41:31.754Z,37.39
2023-03-26T01:43:59.699Z,37.22
2023-03-26T01:46:27.658Z,37.50
2023-03-26T01:48:55.800Z,37.53
2023-03-26T01:51:23.599Z,37.46
2023-03-26T01:53:51.429Z,37.06
2023-03-26T01:56:19.337Z,37.40
2023-03-26T01:58:47.408Z,37.44
2023-03-26T02:01:16.906Z,37.39
2023-03-26T02:03:45.101Z,37.46
2023-03-26T02:06:15.880Z,37.10
2023-03-26T02:08:43.721Z,37.16
2023-03-26T02:11:13.256Z,37.27
2023-03-26T02:13:41.208Z,37.39
2023-03-26T02:16:09.125Z,37.15
2023-03-26T02:18:39.285Z,37.24
2023-03-26T02:21:07.200Z,36.79
2023-03-26T02:23:36.014Z,37.11
2023-03-26T02:26:03.904Z,37.21
2023-03-26T02:28:32.924Z,37.71
2023-03-26T02:31:02.025Z,37.43
2023-03-26T02:33:29.930Z,37.36
2023-03-26T02:35:59.547Z,37.49
2023-03-26T02:38:27.772Z,37.47
2023-03-26T02:40:55.838Z,37.35
2023-03-26T02:43:28.126Z,37.48
2023-03-26T02:45:56.367Z,37.47
2023-03-26T02:48:24.508Z,37.59
2023-03-26T02:50:54.452Z,37.67
2023-03-26T02:53:24.282Z,37.34
2023-03-26T02:55:52.267Z,37.43
2023-03-26T02:58:20.315Z,37.61
2023-03-26T03:00:50.876Z,37.99
2023-03-26T03:03:18.867Z,37.81
2023-03-26T03:05:46.856Z,37.47
2023-03-26T03:08:14.771Z,37.83
2023-03-26T03:10:42.610Z,37.60
2023-03-26T03:13:10.605Z,37.85
2023-03-26T03:15:38.448Z,38.08
2023-03-26T03:18:06.385Z,37.71
2023-03-26T03:20:35.304Z,37.97
2023-03-26T03:23:03.369Z,37.73
2023-03-26T03:25:32.645Z,37.99
2023-03-26T03:28:00.516Z,37.92
2023-03-26T03:30:28.587Z,37.70
2023-03-26T03:32:58.519Z,37.57
2023-03-26T03:35:27.813Z,37.86
2023-03-26T03:37:55.622Z,37.79
2023-03-26T03:40:23.447Z,37.79
2023-03-26T03:42:51.543Z,37.99
2023-03-26T03:45:19.340Z,37.59
2023-03-26T03:47:47.125Z,37.89
2023-03-26T03:50:15.067Z,37.75
2023-03-26T03:52:42.935Z,37.63
2023-03-26T03:55:11.248Z,37.76
2023-03-26T03:57:39.306Z,37.68
2023-03-26T04:00:11.864Z,37.83
2023-03-26T04:02:43.200Z,37.92
2023-03-26T04:05:12.037Z,37.63
2023-03-26T04:07:39.861Z,37.91
2023-03-26T04:10:07.727Z,37.65
2023-03-26T04:12:35.758Z,37.78
2023-03-26T04:15:03.636Z,37.59
2023-03-26T04:17:31.542Z,37.73
2023-03-26T04:20:07.345Z,37.90
2023-03-26T04:22:36.665Z,37.73
2023-03-26T04:25:05.435Z,37.50
2023-03-26T04:27:35.487Z,37.84
2023-03-26T04:30:03.437Z,37.92
2023-03-26T04:32:34.208Z,37.73
2023-03-26T04:35:04.004Z,37.77
2023-03-26T04:37:34.424Z,37.55
2023-03-26T04:40:02.509Z,37.87
2023-03-26T04:42:30.415Z,37.68
2023-03-26T04:44:59.940Z,37.54
2023-03-26T04:47:29.042Z,37.48
2023-03-26T04:49:56.876Z,37.74
2023-03-26T04:52:24.911Z,37.81
2023-03-26T04:54:52.759Z,37.89
2023-03-26T04:57:20.635Z,37.86
2023-03-26T04:59:48.481Z,37.83
2023-03-26T05:02:18.258Z,37.53
2023-03-26T05:04:46.368Z,37.64
2023-03-26T05:07:14.375Z,37.74
2023-03-26T05:09:42.330Z,37.62
2023-03-26T05:12:10.205Z,37.53
2023-03-26T05:14:38.090Z,38.16
2023-03-26T05:17:06.286Z,37.91
2023-03-26T05:19:34.060Z,37.25
2023-03-26T05:22:02.562Z,36.26
2023-03-26T05:24:30.589Z,36.18
2023-03-26T05:26:58.439Z,35.89
2023-03-26T05:29:27.178Z,35.24
2023-03-26T05:31:55.008Z,34.78
2023-03-26T05:34:24.993Z,35.45
2023-03-26T05:36:53.101Z,35.08
2023-03-26T05:39:25.749Z,35.10
2023-03-26T05:41:56.626Z,35.52
2023-03-26T05:44:24.452Z,35.07
2023-03-26T05:46:52.382Z,35.35
2023-03-26T05:49:20.461Z,35.00
2023-03-26T05:51:48.317Z,35.00
2023-03-26T05:54:16.152Z,35.09
2023-03-26T05:56:44.046Z,35.37
2023-03-26T05:59:11.956Z,35.62
2023-03-26T06:01:39.864Z,35.65
2023-03-26T06:04:07.904Z,35.90
2023-03-26T06:06:35.949Z,35.59
2023-03-26T06:09:04.629Z,35.73
2023-03-26T06:11:32.867Z,35.88
2023-03-26T06:14:00.768Z,35.79
2023-03-26T06:16:28.766Z,35.74
2023-03-26T06:18:57.284Z,35.84
2023-03-26T06:21:25.890Z,36.34
2023-03-26T06:23:53.916Z,35.74
2023-03-26T06:26:21.849Z,35.93
2023-03-26T06:28:49.756Z,36.43
2023-03-26T06:31:19.275Z,36.53
2023-03-26T06:33:48.844Z,36.16
2023-03-26T06:36:16.834Z,36.15
2023-03-26T06:38:44.702Z,36.10
2023-03-26T06:41:12.711Z,36.00
2023-03-26T06:43:40.594Z,35.74
2023-03-26T06:46:08.584Z,35.73
2023-03-26T06:48:36.484Z,35.75
2023-03-26T06:51:04.377Z,35.21
2023-03-26T06:53:32.712Z,35.18
2023-03-26T06:56:00.824Z,35.32
2023-03-26T06:58:29.335Z,35.77
2023-03-26T07:00:57.563Z,36.02
2023-03-26T07:03:25.724Z,35.65
2023-03-26T07:05:53.828Z,36.11
2023-03-26T07:08:22.528Z,35.55
2023-03-26T07:10:52.193Z,35.71
2023-03-26T07:13:20.608Z,35.96
2023-03-26T07:15:50.262Z,35.81
2023-03-26T07:18:18.426Z,36.21
2023-03-26T07:20:46.615Z,36.00
2023-03-26T07:23:17.025Z,35.76
2023-03-26T07:25:45.402Z,35.87
2023-03-26T07:28:13.558Z,35.79
2023-03-26T07:30:41.469Z,36.25
2023-03-26T07:33:09.628Z,35.68
2023-03-26T07:35:38.574Z,36.19
2023-03-26T07:38:06.850Z,35.93
2023-03-26T07:40:34.892Z,36.19
2023-03-26T07:43:03.370Z,36.01
2023-03-26T07:45:33.124Z,36.01
2023-03-26T07:48:01.301Z,36.31
2023-03-26T07:50:29.263Z,35.79
2023-03-26T07:52:57.373Z,36.09
2023-03-26T07:55:25.598Z,35.70
2023-03-26T07:57:54.160Z,36.01
2023-03-26T08:00:22.315Z,35.52
2023-03-26T08:02:50.382Z,36.07
2023-03-26T08:05:19.853Z,35.98
2023-03-26T08:07:47.971Z,36.06
2023-03-26T08:10:16.138Z,36.31
2023-03-26T08:12:44.539Z,35.99
2023-03-26T08:15:12.552Z,36.18
2023-03-26T08:17:40.680Z,36.02
2023-03-26T08:20:09.572Z,36.07
2023-03-26T08:22:38.639Z,36.03
2023-03-26T08:25:06.792Z,36.14
2023-03-26T08:27:37.551Z,36.03
2023-03-26T08:30:05.635Z,35.72
2023-03-26T08:32:33.624Z,36.07
2023-03-26T08:35:05.187Z,35.87
2023-03-26T08:37:33.330Z,35.88
2023-03-26T08:40:01.767Z,36.06
2023-03-26T08:42:29.855Z,36.05
2023-03-26T08:44:58.179Z,36.05
2023-03-26T08:47:26.455Z,37.40
2023-03-26T08:49:54.503Z,36.99
2023-03-26T08:52:23.271Z,36.79
2023-03-26T08:54:51.277Z,37.03
2023-03-26T08:57:19.394Z,36.38
2023-03-26T08:59:49.972Z,36.59
2023-03-26T09:02:18.357Z,36.79
2023-03-26T09:04:47.010Z,36.70
2023-03-26T09:07:16.838Z,36.53
2023-03-26T09:09:45.302Z,36.26
2023-03-26T09:12:13.392Z,36.57
2023-03-26T09:14:42.110Z,36.52
2023-03-26T09:17:10.094Z,36.15
2023-03-26T09:19:38.648Z,36.01
2023-03-26T09:22:06.673Z,36.35
2023-03-26T09:24:34.686Z,36.03
2023-03-26T09:27:02.894Z,36.46
2023-03-26T09:29:32.791Z,36.14
2023-03-26T09:32:02.654Z,35.90
2023-03-26T09:34:31.703Z,35.86
2023-03-26T09:36:59.817Z,36.24
2023-03-26T09:39:28.125Z,35.89
2023-03-26T09:41:56.257Z,36.21
2023-03-26T09:44:24.336Z,36.29
2023-03-26T09:46:52.394Z,35.83
2023-03-26T09:49:21.681Z,36.13
2023-03-26T09:51:49.736Z,36.12
2023-03-26T09:54:18.319Z,35.65
2023-03-26T09:56:46.398Z,36.28
2023-03-26T09:59:14.408Z,36.21
2023-03-26T10:01:42.608Z,36.05
2023-03-26T10:04:10.736Z,36.20
2023-03-26T10:06:38.991Z,35.73
2023-03-26T10:09:06.921Z,35.88
2023-03-26T10:11:35.049Z,35.62
2023-03-26T10:14:03.970Z,35.77
2023-03-26T10:16:32.062Z,35.67
2023-03-26T10:19:00.120Z,35.64
2023-03-26T10:21:28.582Z,35.79
2023-03-26T10:23:57.296Z,35.36
2023-03-26T10:26:27.981Z,35.92
2023-03-26T10:28:56.962Z,35.84
2023-03-26T10:31:26.246Z,35.71
2023-03-26T10:33:54.274Z,35.94
2023-03-26T10:36:22.347Z,35.74
2023-03-26T10:38:50.621Z,35.72
2023-03-26T10:41:18.661Z,35.67
2023-03-26T10:43:57.801Z,35.70
2023-03-26T10:46:29.538Z,35.57
2023-03-26T10:49:01.113Z,35.55
2023-03-26T10:51:29.114Z,35.89
2023-03-26T10:53:57.388Z,35.54
2023-03-26T10:56:26.831Z,35.42
2023-03-26T10:58:54.860Z,35.25
2023-03-26T11:01:23.095Z,35.25
2023-03-26T11:03:52.222Z,35.36
2023-03-26T11:06:20.298Z,35.33
2023-03-26T11:08:49.090Z,35.48
2023-03-26T11:11:17.119Z,35.02
2023-03-26T11:13:45.119Z,35.38
2023-03-26T11:16:13.249Z,35.32
2023-03-26T11:18:41.588Z,35.39
2023-03-26T11:21:18.746Z,35.49
2023-03-26T11:23:48.403Z,35.72
2023-03-26T11:26:33.573Z,35.41
2023-03-26T11:29:03.789Z,35.51
2023-03-26T11:31:49.720Z,35.56
2023-03-26T11:34:17.802Z,35.59
2023-03-26T11:36:47.016Z,35.64
2023-03-26T11:39:15.504Z,35.33
2023-03-26T11:41:43.573Z,35.52
2023-03-26T11:44:11.507Z,35.42
2023-03-26T11:46:39.723Z,35.35
2023-03-26T11:49:09.350Z,35.29
2023-03-26T11:51:37.451Z,35.68
2023-03-26T11:54:06.575Z,35.80
2023-03-26T11:56:34.735Z,35.58
2023-03-26T11:59:03.123Z,35.88
2023-03-26T12:01:31.358Z,35.70
2023-03-26T12:04:00.497Z,36.18
2023-03-26T12:06:29.194Z,36.23
2023-03-26T12:08:57.996Z,36.15
2023-03-26T12:11:27.320Z,35.93
2023-03-26T12:13:55.335Z,35.20
2023-03-26T12:16:23.585Z,35.40
2023-03-26T12:18:51.518Z,35.27
2023-03-26T12:21:19.491Z,35.36
2023-03-26T12:23:48.437Z,35.06
2023-03-26T12:26:16.663Z,34.65
2023-03-26T12:28:44.532Z,35.04
2023-03-26T12:31:12.385Z,35.13
2023-03-26T12:33:40.647Z,34.68
2023-03-26T12:36:08.506Z,35.24
2023-03-26T12:38:37.631Z,34.90
2023-03-26T12:41:05.955Z,35.06
2023-03-26T12:44:46.260Z,35.16
2023-03-26T12:47:55.382Z,35.51
2023-03-26T12:49:11.523Z,35.12
2023-03-26T12:51:40.397Z,35.24
2023-03-26T12:54:09.861Z,35.37
2023-03-26T12:56:38.928Z,35.34
2023-03-26T12:59:07.075Z,35.42
2023-03-26T13:01:35.034Z,36.00
2023-03-26T13:04:07.718Z,35.67
2023-03-26T13:06:48.565Z,35.43
2023-03-26T13:09:24.133Z,36.03
2023-03-26T13:11:52.213Z,35.96
2023-03-26T13:14:20.458Z,35.15
2023-03-26T13:16:48.304Z,35.63
2023-03-26T13:19:16.130Z,35.77
2023-03-26T13:21:45.305Z,35.73
2023-03-26T13:24:13.110Z,35.78
2023-03-26T13:26:41.231Z,35.62
2023-03-26T13:29:09.014Z,35.14
2023-03-26T13:31:36.892Z,35.21
2023-03-26T13:34:05.070Z,35.22
2023-03-26T13:36:33.218Z,35.29
2023-03-26T13:39:03.557Z,35.46
2023-03-26T13:41:31.655Z,35.57
2023-03-26T13:43:59.542Z,35.65
2023-03-26T13:46:27.536Z,35.91
2023-03-26T13:48:56.091Z,35.72
2023-03-26T13:51:24.113Z,35.40
2023-03-26T13:53:51.986Z,35.81
2023-03-26T13:56:19.914Z,35.84
2023-03-26T13:58:47.984Z,36.09
2023-03-26T14:01:16.938Z,36.19
2023-03-26T14:03:45.569Z,35.84
2023-03-26T14:06:13.716Z,35.96
2023-03-26T14:08:42.115Z,36.10
2023-03-26T14:11:11.039Z,36.05
2023-03-26T14:13:39.048Z,36.16
2023-03-26T14:16:07.133Z,35.77
2023-03-26T14:18:35.022Z,35.98
2023-03-26T14:21:02.892Z,36.21
2023-03-26T14:23:31.180Z,36.32
2023-03-26T14:25:59.066Z,36.31
2023-03-26T14:28:26.912Z,36.85
2023-03-26T14:30:56.438Z,36.73
2023-03-26T14:33:27.866Z,36.97
2023-03-26T14:35:56.256Z,37.16
2023-03-26T14:38:24.288Z,37.70
2023-03-26T14:40:52.124Z,37.69
2023-03-26T14:43:20.902Z,37.79
2023-03-26T14:45:48.729Z,38.25
2023-03-26T14:48:16.967Z,37.68
2023-03-26T14:50:46.706Z,37.50
2023-03-26T14:53:14.941Z,37.62
2023-03-26T14:55:42.826Z,37.83
2023-03-26T14:58:10.758Z,37.67
2023-03-26T15:00:39.012Z,37.61
2023-03-26T15:03:07.597Z,37.86
2023-03-26T15:05:35.603Z,37.74
2023-03-26T15:08:03.563Z,37.60
2023-03-26T15:10:32.313Z,37.44
2023-03-26T15:13:00.149Z,37.80
2023-03-26T15:15:28.002Z,37.63
2023-03-26T15:17:56.264Z,37.92
2023-03-26T15:20:26.172Z,37.33
2023-03-26T15:22:54.095Z,37.75
2023-03-26T15:25:22.413Z,37.26
2023-03-26T15:27:50.373Z,37.25
2023-03-26T15:30:18.209Z,37.37
2023-03-26T15:35:38.053Z,37.50
2023-03-26T15:38:05.929Z,37.35
2023-03-26T15:40:34.162Z,37.38
2023-03-26T15:43:02.189Z,37.64
2023-03-26T15:45:30.113Z,37.58
2023-03-26T15:47:58.226Z,37.42
2023-03-26T15:50:26.243Z,37.54
2023-03-26T15:52:54.408Z,37.66
2023-03-26T15:55:22.354Z,37.70
2023-03-26T15:57:51.210Z,37.46
2023-03-26T16:00:22.489Z,37.67
2023-03-26T16:02:53.872Z,37.75
2023-03-26T16:05:22.506Z,37.81
2023-03-26T16:07:50.307Z,37.65
2023-03-26T16:10:18.497Z,37.65
2023-03-26T16:12:46.330Z,37.60
2023-03-26T16:15:14.293Z,37.52
2023-03-26T16:17:42.415Z,37.73
2023-03-26T16:20:10.357Z,38.00
2023-03-26T16:22:42.780Z,37.91
2023-03-26T16:25:28.761Z,37.92
2023-03-26T16:27:57.796Z,37.75
2023-03-26T16:30:25.596Z,38.12
2023-03-26T16:32:56.181Z,37.78
2023-03-26T16:35:24.207Z,37.80
2023-03-26T16:37:52.046Z,38.07
2023-03-26T16:40:20.588Z,38.13
2023-03-26T16:42:48.444Z,37.96
2023-03-26T16:45:17.718Z,37.71
2023-03-26T16:47:45.839Z,37.82
2023-03-26T16:50:13.935Z,38.13
2023-03-26T16:52:42.936Z,38.14
2023-03-26T16:55:10.774Z,38.27
2023-03-26T16:57:39.837Z,38.17
2023-03-26T17:00:08.312Z,38.19
2023-03-26T17:02:37.687Z,38.13
2023-03-26T17:05:05.707Z,38.15
2023-03-26T17:07:33.877Z,38.32
2023-03-26T17:10:01.893Z,38.35
2023-03-26T17:12:29.691Z,38.37
2023-03-26T17:14:57.742Z,38.52
2023-03-26T17:17:26.038Z,38.17
2023-03-26T17:19:54.308Z,38.01
2023-03-26T17:22:28.308Z,38.06
2023-03-26T17:24:56.374Z,37.87
2023-03-26T17:27:25.051Z,38.00
2023-03-26T17:29:53.406Z,38.12
2023-03-26T17:32:21.601Z,37.79
2023-03-26T17:34:49.924Z,38.02
2023-03-26T17:37:18.892Z,37.82
2023-03-26T17:39:47.114Z,37.57
2023-03-26T17:42:15.683Z,37.60
2023-03-26T17:44:43.676Z,37.63
2023-03-26T17:47:11.655Z,37.92
2023-03-26T17:49:41.131Z,37.59
2023-03-26T17:52:10.202Z,37.77
2023-03-26T17:54:41.414Z,38.00
2023-03-26T17:57:10.421Z,37.99
2023-03-26T17:59:39.320Z,38.03
2023-03-26T18:02:07.626Z,37.86
2023-03-26T18:04:35.772Z,38.22
2023-03-26T18:07:04.457Z,38.17
2023-03-26T18:09:33.454Z,37.92
2023-03-26T18:12:02.700Z,37.79
2023-03-26T18:14:34.677Z,38.14
2023-03-26T18:19:32.012Z,37.96
2023-03-26T18:21:59.889Z,38.24
2023-03-26T18:24:27.791Z,38.03
2023-03-26T18:26:55.601Z,38.08
2023-03-26T18:29:24.390Z,38.21
2023-03-26T18:31:52.256Z,38.37
2023-03-26T18:34:20.146Z,38.44
2023-03-26T18:36:48.271Z,38.55
2023-03-26T18:39:17.098Z,38.47
2023-03-26T18:41:44.926Z,38.28
2023-03-26T18:44:13.025Z,38.29
2023-03-26T18:46:41.270Z,38.93
2023-03-26T18:49:09.090Z,38.37
2023-03-26T18:51:46.345Z,38.21
2023-03-26T18:54:14.396Z,38.47
2023-03-26T18:56:42.405Z,38.26
2023-03-26T18:59:12.222Z,38.24
2023-03-26T19:01:40.252Z,38.27
2023-03-26T19:04:08.312Z,38.13
2023-03-26T19:06:38.480Z,38.37
2023-03-26T19:09:16.323Z,38.40
2023-03-26T19:11:47.795Z,38.50
2023-03-26T19:14:17.120Z,38.37
2023-03-26T19:16:45.076Z,38.27
2023-03-26T19:19:13.004Z,38.52
2023-03-26T19:21:41.500Z,38.31
2023-03-26T19:24:09.395Z,38.38
2023-03-26T19:26:37.982Z,38.31
2023-03-26T19:29:05.912Z,38.07
2023-03-26T19:31:33.799Z,38.49
2023-03-26T19:34:01.729Z,38.26
2023-03-26T19:36:30.438Z,38.28
2023-03-26T19:38:58.363Z,38.48
2023-03-26T19:41:26.670Z,38.47
2023-03-26T19:43:55.934Z,38.48
2023-03-26T19:46:24.008Z,38.50
2023-03-26T19:48:54.299Z,38.92
2023-03-26T19:51:22.248Z,38.79
2023-03-26T19:53:50.373Z,38.72
2023-03-26T19:56:18.670Z,38.77
2023-03-26T19:58:46.587Z,38.89
2023-03-26T20:01:14.443Z,38.43
2023-03-26T20:03:42.278Z,38.72
2023-03-26T20:06:10.329Z,38.64
2023-03-26T20:08:40.703Z,38.55
2023-03-26T20:11:08.469Z,38.52
2023-03-26T20:13:36.425Z,38.69
2023-03-26T20:16:05.771Z,38.75
2023-03-26T20:18:34.200Z,38.69
2023-03-26T20:21:02.105Z,38.67
2023-03-26T20:23:30.606Z,38.65
2023-03-26T20:25:58.582Z,38.68
2023-03-26T20:28:26.545Z,38.79
2023-03-26T20:30:55.496Z,38.60
2023-03-26T20:33:25.410Z,38.75
2023-03-26T20:35:53.658Z,38.84
2023-03-26T20:38:26.483Z,38.97
2023-03-26T20:41:01.025Z,38.73
2023-03-26T20:43:30.413Z,39.19
2023-03-26T20:45:58.689Z,38.79
2023-03-26T20:48:27.182Z,38.89
2023-03-26T20:50:54.992Z,39.11
2023-03-26T20:53:23.738Z,38.99
2023-03-26T20:55:51.860Z,38.80
2023-03-26T20:58:30.976Z,39.10
2023-03-26T21:01:00.466Z,38.90
2023-03-26T21:03:28.583Z,39.15
2023-03-26T21:05:56.455Z,38.80
2023-03-26T21:08:30.188Z,39.21
2023-03-26T21:10:58.860Z,39.01
2023-03-26T21:13:26.725Z,39.00
2023-03-26T21:15:54.696Z,39.20
2023-03-26T21:18:22.620Z,38.90
2023-03-26T21:20:50.437Z,38.95
2023-03-26T21:23:18.334Z,39.03
2023-03-26T21:25:46.129Z,38.93
2023-03-26T21:28:17.479Z,39.07
2023-03-26T21:30:47.094Z,39.27
2023-03-26T21:33:14.914Z,38.66
2023-03-26T21:35:44.774Z,38.84
2023-03-26T21:38:12.753Z,39.06
2023-03-26T21:40:49.694Z,38.75
2023-03-26T21:43:24.469Z,39.00
2023-03-26T21:45:54.133Z,38.95
2023-03-26T21:48:24.323Z,38.92
2023-03-26T21:50:52.344Z,38.80
2023-03-26T21:53:20.190Z,39.27
2023-03-26T21:55:48.026Z,39.20
2023-03-26T21:58:15.836Z,39.11
2023-03-26T22:00:44.024Z,38.92
2023-03-26T22:03:12.100Z,39.15
2023-03-26T22:05:40.098Z,39.22
2023-03-26T22:08:08.174Z,38.91
2023-03-26T22:10:37.211Z,38.82
2023-03-26T22:13:05.082Z,39.12
2023-03-26T22:15:34.043Z,38.98
2023-03-26T22:18:01.955Z,39.48
2023-03-26T22:20:29.885Z,39.46
2023-03-26T22:22:59.044Z,39.36
2023-03-26T22:25:27.617Z,39.10
2023-03-26T22:27:55.459Z,39.38
2023-03-26T22:30:23.333Z,39.04
2023-03-26T22:32:51.897Z,39.45
2023-03-26T22:35:19.975Z,39.02
2023-03-26T22:37:47.847Z,39.37
2023-03-26T22:40:16.225Z,39.25
2023-03-26T22:42:44.117Z,39.36
2023-03-26T22:45:11.972Z,39.46
2023-03-26T22:47:40.161Z,39.38
2023-03-26T22:50:08.242Z,39.17
2023-03-26T22:52:36.076Z,38.61
2023-03-26T22:55:04.819Z,38.99
2023-03-26T22:57:32.656Z,38.84
2023-03-26T23:00:12.220Z,39.16
2023-03-26T23:02:40.054Z,39.07
2023-03-26T23:05:07.910Z,39.15
2023-03-26T23:07:35.715Z,39.18
2023-03-26T23:10:03.547Z,38.55
2023-03-26T23:12:31.476Z,38.85
2023-03-26T23:14:59.396Z,38.82
2023-03-26T23:17:27.257Z,38.92
2023-03-26T23:19:55.642Z,38.84
2023-03-26T23:22:23.484Z,38.26
2023-03-26T23:24:53.797Z,38.50
2023-03-26T23:27:22.511Z,38.48
2023-03-26T23:29:50.578Z,38.91
2023-03-26T23:32:24.085Z,38.44
2023-03-26T23:34:53.120Z,38.43
2023-03-26T23:37:23.442Z,38.92
2023-03-26T23:39:51.442Z,38.70
2023-03-26T23:42:29.155Z,38.20
2023-03-26T23:44:57.699Z,38.64
2023-03-26T23:47:25.779Z,39.38
2023-03-26T23:49:53.673Z,38.47
2023-03-26T23:52:21.714Z,38.65
2023-03-26T23:54:49.565Z,39.13
2023-03-26T23:57:18.557Z,39.07
2023-03-26T23:59:46.414Z,39.11
